Time;durP1;ratioP1;P1;durP2;ratioP2;P2;SDS_P1;SDS_P2;PMS_P1;PMS_P2;Temp;Humidity;BMP_temperature;BMP_pressure;BME280_temperature;BME280_humidity;BME280_pressure;Samples;Min_cycle;Max_cycle;Signal;HPM_P1;HPM_P2
2021/04/30 00:02:19;;;;;;;5.32;3.60;;;;;;;10.75;61.35;96971.34;10445767;28;20041;-74
2021/04/30 00:07:39;;;;;;;4.40;3.60;;;;;;;10.70;61.55;96964.81;10431758;28;20061;-74
2021/04/30 00:13:00;;;;;;;6.38;3.95;;;;;;;10.68;61.68;96978.66;10445406;28;20045;-74
2021/04/30 00:18:20;;;;;;;5.38;3.83;;;;;;;10.65;62.22;96977.09;10445061;28;20041;-74
2021/04/30 00:23:41;;;;;;;5.13;3.85;;;;;;;10.63;61.79;96970.69;10444779;28;20041;-74
2021/04/30 00:29:01;;;;;;;7.60;4.00;;;;;;;10.56;63.12;96978.72;10444926;28;20511;-74
2021/04/30 00:34:22;;;;;;;6.15;3.92;;;;;;;10.54;62.61;96975.09;10414538;28;20131;-74
2021/04/30 00:39:43;;;;;;;8.02;4.50;;;;;;;10.50;63.03;96972.78;10444384;28;20045;-74
2021/04/30 00:45:07;;;;;;;5.35;3.95;;;;;;;10.44;62.83;96961.31;10444512;28;20041;-74
2021/04/30 00:50:31;;;;;;;6.97;4.00;;;;;;;10.37;63.67;96962.31;10430593;28;20045;-74
2021/04/30 00:55:52;;;;;;;5.32;4.10;;;;;;;10.34;62.54;96962.81;10430034;28;20499;-74
2021/04/30 01:01:12;;;;;;;7.22;4.72;;;;;;;10.33;63.04;96976.03;10415819;28;20041;-74
2021/04/30 01:06:33;;;;;;;6.25;4.32;;;;;;;10.32;63.01;96974.56;10429457;28;20057;-74
2021/04/30 01:11:54;;;;;;;6.45;3.80;;;;;;;10.25;63.30;96978.38;10415506;28;20476;-74
2021/04/30 01:17:14;;;;;;;6.40;4.32;;;;;;;10.07;64.49;96991.97;10442966;28;20041;-74
2021/04/30 01:22:48;;;;;;;7.15;4.85;;;;;;;9.93;64.03;96999.50;10429570;28;20385;-75
2021/04/30 01:28:09;;;;;;;5.78;4.40;;;;;;;9.83;64.14;97007.28;10442201;28;20408;-74
2021/04/30 01:33:29;;;;;;;9.48;4.72;;;;;;;9.79;65.60;97010.56;10428689;28;20542;-74
2021/04/30 01:38:49;;;;;;;6.78;4.32;;;;;;;9.78;65.18;97013.97;10441797;28;20053;-74
2021/04/30 01:44:11;;;;;;;5.95;4.40;;;;;;;9.79;64.45;97016.16;10428132;28;20044;-74
2021/04/30 01:49:32;;;;;;;7.28;4.30;;;;;;;9.82;64.51;97026.06;10427853;28;20044;-74
2021/04/30 01:54:52;;;;;;;8.15;4.75;;;;;;;9.78;64.87;97031.41;10427993;28;20041;-74
2021/04/30 02:00:26;;;;;;;5.75;4.50;;;;;;;9.69;64.63;97033.00;10441636;28;20103;-74
2021/04/30 02:05:47;;;;;;;7.20;4.65;;;;;;;9.63;65.03;97045.81;10427166;28;20399;-74
2021/04/30 02:11:08;;;;;;;6.53;4.60;;;;;;;9.57;64.86;97049.00;10441535;28;20045;-74
2021/04/30 02:16:28;;;;;;;6.50;4.30;;;;;;;9.58;64.68;97055.28;10427381;28;20057;-74
2021/04/30 02:21:48;;;;;;;6.22;4.68;;;;;;;9.53;64.66;97053.59;10441326;28;20041;-74
2021/04/30 02:27:09;;;;;;;5.90;5.00;;;;;;;9.46;65.24;97072.72;10427408;28;20063;-74
2021/04/30 02:32:30;;;;;;;8.48;4.95;;;;;;;9.32;65.36;97068.34;10427119;28;20041;-74
2021/04/30 02:37:51;;;;;;;6.88;4.95;;;;;;;9.19;65.40;97066.88;10427168;28;20049;-74
2021/04/30 02:43:15;;;;;;;6.75;4.70;;;;;;;9.12;65.47;97067.81;10441048;28;20369;-74
2021/04/30 02:48:40;;;;;;;5.85;4.63;;;;;;;9.13;65.57;97063.69;10429004;28;20037;-74
2021/04/30 02:54:00;;;;;;;6.35;4.60;;;;;;;9.12;65.72;97065.03;10421445;28;20040;-74
2021/04/30 02:59:20;;;;;;;7.25;4.25;;;;;;;9.05;65.72;97068.75;10434394;28;20044;-74
2021/04/30 03:04:41;;;;;;;8.68;4.80;;;;;;;8.94;65.91;97069.47;10434427;28;20045;-74
2021/04/30 03:10:05;;;;;;;6.88;4.90;;;;;;;8.80;65.98;97080.44;10433720;28;20049;-74
2021/04/30 03:15:26;;;;;;;6.63;4.70;;;;;;;8.70;65.90;97085.34;10447584;28;20041;-74
2021/04/30 03:20:46;;;;;;;8.38;5.00;;;;;;;8.56;66.27;97082.38;10433973;28;20052;-74
2021/04/30 03:26:07;;;;;;;7.97;5.47;;;;;;;8.44;65.94;97092.72;10433673;28;20053;-74
2021/04/30 03:31:27;;;;;;;7.65;5.00;;;;;;;8.32;66.10;97098.19;10433350;28;20060;-74
2021/04/30 03:36:48;;;;;;;9.00;5.57;;;;;;;8.24;66.26;97098.38;10432933;28;20102;-74
2021/04/30 03:42:08;;;;;;;6.10;4.60;;;;;;;8.20;66.12;97100.16;10433204;28;20053;-74
2021/04/30 03:47:30;;;;;;;7.05;5.13;;;;;;;8.14;65.95;97106.06;10432819;28;20049;-74
2021/04/30 03:52:50;;;;;;;8.90;5.28;;;;;;;8.11;65.35;97110.03;10432335;28;20052;-75
2021/04/30 03:58:12;;;;;;;7.32;5.35;;;;;;;8.10;65.28;97122.44;10432525;28;20494;-74
2021/04/30 04:03:34;;;;;;;9.50;5.72;;;;;;;8.11;65.31;97121.16;10418439;28;20041;-74
2021/04/30 04:08:54;;;;;;;6.70;4.93;;;;;;;8.20;65.01;97127.97;10445969;28;20060;-74
2021/04/30 04:14:15;;;;;;;8.02;5.00;;;;;;;8.23;64.10;97133.09;10445476;28;20052;-74
2021/04/30 04:19:37;;;;;;;6.15;4.75;;;;;;;8.32;64.33;97131.56;10431583;28;20056;-75
2021/04/30 04:24:57;;;;;;;8.15;6.07;;;;;;;8.57;64.05;97128.34;10431399;28;20041;-75
2021/04/30 04:30:17;;;;;;;7.13;4.90;;;;;;;8.78;62.77;97141.50;10431050;28;20404;-74
2021/04/30 04:35:38;;;;;;;6.70;5.38;;;;;;;9.02;62.52;97143.06;10444630;28;20045;-74
2021/04/30 04:40:58;;;;;;;9.48;5.05;;;;;;;9.24;62.93;97156.94;10427845;28;20496;-75
2021/04/30 04:46:19;;;;;;;7.38;4.93;;;;;;;9.43;62.10;97154.69;10430334;28;20112;-74
2021/04/30 04:51:39;;;;;;;5.65;4.40;;;;;;;9.63;61.70;97158.00;9450887;28;10001546;-76
2021/04/30 04:57:00;;;;;;;8.23;5.13;;;;;;;9.92;61.47;97151.38;10422829;28;20080;-73
2021/04/30 05:02:20;;;;;;;7.32;5.03;;;;;;;10.30;59.56;97152.97;10429894;28;20036;-72
2021/04/30 05:07:40;;;;;;;7.03;4.53;;;;;;;10.69;60.36;97169.19;10443624;28;20053;-73
2021/04/30 05:13:01;;;;;;;6.82;4.75;;;;;;;11.00;58.52;97175.19;10456585;28;20041;-73
2021/04/30 05:18:21;;;;;;;6.63;4.88;;;;;;;11.40;54.50;97170.41;10443530;28;20041;-73
2021/04/30 05:23:41;;;;;;;5.05;4.50;;;;;;;12.39;52.29;97182.63;10456636;28;20045;-73
2021/04/30 05:29:02;;;;;;;7.00;4.80;;;;;;;16.05;57.64;97184.84;10442625;28;20052;-73
2021/04/30 05:34:22;;;;;;;4.25;3.78;;;;;;;23.55;51.04;97186.28;10442292;28;20037;-74
2021/04/30 05:39:43;;;;;;;6.50;3.40;;;;;;;31.16;36.62;97190.84;10439055;28;20396;-75
2021/04/30 05:45:05;;;;;;;3.07;2.70;;;;;;;36.15;23.96;97198.47;10451787;28;20048;-77
2021/04/30 05:50:26;;;;;;;2.83;2.15;;;;;;;40.03;15.43;97207.19;10452432;28;20048;-76
2021/04/30 05:55:46;;;;;;;7.20;2.85;;;;;;;41.14;11.27;97219.44;10440080;28;20396;-76
2021/04/30 06:01:07;;;;;;;3.35;2.53;;;;;;;39.97;10.42;97216.31;10437702;28;20090;-75
2021/04/30 06:06:27;;;;;;;2.42;2.22;;;;;;;38.28;10.64;97204.47;10437495;28;20110;-75
2021/04/30 06:11:48;;;;;;;2.53;1.92;;;;;;;37.44;10.75;97219.53;10439209;28;20472;-77
2021/04/30 06:17:08;;;;;;;2.88;2.03;;;;;;;41.04;10.00;97231.78;10439614;28;20049;-74
2021/04/30 06:22:30;;;;;;;3.35;2.03;;;;;;;44.88;6.30;97235.53;10426154;28;20056;-74
2021/04/30 06:27:50;;;;;;;4.70;2.65;;;;;;;36.52;8.64;97232.47;10446467;28;20503;-76
2021/04/30 06:33:10;;;;;;;2.58;2.10;;;;;;;31.40;11.44;97239.31;10446418;28;20048;-75
2021/04/30 06:38:31;;;;;;;3.63;2.45;;;;;;;29.18;13.12;97240.47;10460171;28;20480;-77
2021/04/30 06:43:52;;;;;;;4.78;2.67;;;;;;;28.46;13.89;97237.06;10432541;28;20484;-76
2021/04/30 06:49:12;;;;;;;3.00;2.63;;;;;;;28.46;14.59;97231.31;10445993;28;20045;-77
2021/04/30 06:54:33;;;;;;;3.17;2.38;;;;;;;28.86;14.48;97229.41;10445896;28;20041;-76
2021/04/30 06:59:53;;;;;;;5.07;3.08;;;;;;;29.52;14.27;97241.44;10445441;28;20060;-75
2021/04/30 07:05:14;;;;;;;4.00;2.47;;;;;;;29.83;13.62;97245.25;10431605;28;20049;-76
2021/04/30 07:10:46;;;;;;;3.63;2.83;;;;;;;31.20;13.42;97246.25;10661348;27;20202;-75
2021/04/30 07:16:06;;;;;;;3.30;2.25;;;;;;;32.95;12.34;97250.47;10588773;28;20077;-75
2021/04/30 07:21:27;;;;;;;2.58;2.03;;;;;;;34.35;11.67;97251.06;10574752;28;20039;-73
2021/04/30 07:26:47;;;;;;;4.28;2.20;;;;;;;35.00;11.20;97265.47;10588438;28;20043;-75
2021/04/30 07:32:08;;;;;;;3.35;2.42;;;;;;;35.44;10.63;97257.25;10574327;28;20043;-76
2021/04/30 07:37:33;;;;;;;4.57;2.03;;;;;;;35.88;9.91;97262.06;10589193;28;20051;-75
2021/04/30 07:42:54;;;;;;;3.20;2.60;;;;;;;35.76;10.11;97271.97;10587991;28;20047;-75
2021/04/30 07:48:14;;;;;;;3.80;2.08;;;;;;;35.45;10.34;97258.66;10602152;27;20051;-76
2021/04/30 07:53:35;;;;;;;4.20;2.33;;;;;;;35.55;10.37;97254.66;10601938;28;20129;-76
2021/04/30 07:58:57;;;;;;;5.22;2.05;;;;;;;35.97;10.29;97266.03;10601926;27;20043;-76
2021/04/30 08:04:17;;;;;;;3.00;2.20;;;;;;;35.02;10.14;97279.16;10601299;27;20492;-77
2021/04/30 08:09:38;;;;;;;4.55;2.05;;;;;;;34.25;10.48;97260.13;10600863;28;20482;-77
2021/04/30 08:14:59;;;;;;;3.17;2.15;;;;;;;34.25;10.88;97271.72;10586957;28;20394;-76
2021/04/30 08:20:19;;;;;;;2.42;1.98;;;;;;;34.41;10.61;97282.06;10568390;28;20047;-74
2021/04/30 08:25:40;;;;;;;3.93;1.83;;;;;;;35.59;10.31;97285.69;10558192;28;20475;-75
2021/04/30 08:31:01;;;;;;;3.17;2.20;;;;;;;36.22;9.12;97269.34;10572006;28;20466;-74
2021/04/30 08:36:21;;;;;;;2.72;2.08;;;;;;;35.89;9.20;97295.41;10572233;28;20058;-73
2021/04/30 08:41:42;;;;;;;2.95;2.25;;;;;;;34.25;9.55;97283.28;10543836;28;20043;-73
2021/04/30 08:47:03;;;;;;;3.80;2.30;;;;;;;33.50;10.36;97283.56;10571374;28;20035;-73
2021/04/30 08:52:23;;;;;;;3.07;1.80;;;;;;;32.94;10.64;97283.03;10571370;27;20043;-73
2021/04/30 08:57:46;;;;;;;2.95;1.60;;;;;;;37.20;9.59;97273.75;10570498;28;20066;-74
2021/04/30 09:03:10;;;;;;;4.20;1.42;;;;;;;41.19;6.44;97282.03;10583492;28;20054;-74
2021/04/30 09:08:46;;;;;;;3.08;1.50;;;;;;;40.87;6.16;97267.22;10570742;27;20062;-74
2021/04/30 09:14:22;;;;;;;2.38;1.40;;;;;;;43.46;5.32;97282.25;10570956;28;20052;-75
2021/04/30 09:20:01;;;;;;;2.65;1.55;;;;;;;45.31;4.25;97282.22;10556110;28;20036;-77
2021/04/30 09:25:21;;;;;;;2.00;1.10;;;;;;;44.81;4.44;97279.47;10556371;28;20043;-76
2021/04/30 09:30:41;;;;;;;2.13;1.20;;;;;;;47.03;3.60;97281.84;10568670;28;20051;-77
2021/04/30 09:36:01;;;;;;;1.58;1.23;;;;;;;46.37;3.39;97270.56;10569809;28;20474;-76
2021/04/30 09:41:23;;;;;;;1.95;0.90;;;;;;;43.84;4.11;97266.28;10555094;28;20536;-77
2021/04/30 09:46:44;;;;;;;1.40;0.90;;;;;;;41.58;4.97;97273.72;10569202;28;20039;-76
2021/04/30 09:52:07;;;;;;;2.42;1.00;;;;;;;39.37;5.90;97258.44;10568800;28;20043;-78
2021/04/30 09:57:28;;;;;;;1.90;0.93;;;;;;;37.49;6.55;97250.56;10569234;28;20120;-77
2021/04/30 10:02:49;;;;;;;1.60;1.20;;;;;;;35.90;7.18;97242.34;10554375;28;20149;-78
2021/04/30 10:08:16;;;;;;;1.38;1.10;;;;;;;38.26;6.83;97227.88;10568047;28;20052;-78
2021/04/30 10:13:36;;;;;;;1.88;1.20;;;;;;;42.15;5.75;97240.00;10568253;28;20043;-77
2021/04/30 10:18:57;;;;;;;2.53;1.20;;;;;;;43.23;4.91;97253.06;10553856;28;20053;-74
2021/04/30 10:24:18;;;;;;;2.90;1.30;;;;;;;41.97;5.12;97242.63;10582047;28;20050;-75
2021/04/30 10:30:34;;;;;;;3.42;1.40;;;;;;;37.24;7.29;97215.38;10555787;28;20293;-74
2021/04/30 10:36:05;;;;;;;2.30;1.50;;;;;;;36.16;8.71;97214.41;10572586;28;20473;-72
2021/04/30 10:41:37;;;;;;;1.85;1.27;;;;;;;35.39;8.27;97221.19;10539153;28;20040;-73
2021/04/30 10:47:15;;;;;;;2.05;1.38;;;;;;;33.66;9.19;97215.78;10566799;28;20101;-73
2021/04/30 10:52:37;;;;;;;3.13;2.58;;;;;;;31.17;10.23;97206.66;10566769;28;20046;-73
2021/04/30 10:58:03;;;;;;;4.73;2.23;;;;;;;29.78;11.00;97191.41;10566793;28;20047;-75
2021/04/30 11:03:24;;;;;;;5.40;2.53;;;;;;;28.85;12.07;97193.50;10567050;28;20036;-75
2021/04/30 11:08:49;;;;;;;4.53;2.30;;;;;;;27.07;13.68;97195.22;10566872;28;20456;-75
2021/04/30 11:14:22;;;;;;;2.83;1.80;;;;;;;26.52;14.06;97189.75;10566224;28;20490;-74
2021/04/30 11:19:44;;;;;;;2.30;1.83;;;;;;;26.42;14.48;97186.22;10566008;28;20055;-75
2021/04/30 11:25:06;;;;;;;3.65;1.63;;;;;;;25.98;14.89;97169.91;10566219;28;20039;-74
2021/04/30 11:30:26;;;;;;;3.90;2.10;;;;;;;25.98;15.60;97167.75;10538040;28;20390;-74
2021/04/30 11:35:47;;;;;;;4.03;2.60;;;;;;;25.80;15.54;97164.94;10566425;28;20039;-75
2021/04/30 11:41:09;;;;;;;2.28;1.65;;;;;;;25.07;15.82;97159.91;10565727;28;20047;-74
2021/04/30 11:46:29;;;;;;;2.80;1.98;;;;;;;24.63;16.28;97166.94;10537541;28;20047;-74
2021/04/30 11:51:50;;;;;;;3.28;2.13;;;;;;;24.58;16.42;97168.34;10565585;28;20113;-74
2021/04/30 11:57:12;;;;;;;10.73;2.90;;;;;;;23.38;16.90;97165.50;10558368;28;20040;-75
2021/04/30 12:02:34;;;;;;;25.42;4.43;;;;;;;23.23;17.54;97172.47;10559564;27;20043;-74
2021/04/30 12:07:55;;;;;;;5.82;2.53;;;;;;;22.37;18.11;97153.78;10544626;28;20051;-75
2021/04/30 12:13:20;;;;;;;16.42;3.35;;;;;;;22.21;18.78;97153.63;10558979;28;20044;-75
2021/04/30 12:18:40;;;;;;;5.05;1.95;;;;;;;22.35;18.59;97145.25;10571596;28;20104;-73
2021/04/30 12:24:05;;;;;;;3.05;2.10;;;;;;;22.26;18.92;97152.25;10572674;28;20048;-74
2021/04/30 12:29:27;;;;;;;7.10;3.50;;;;;;;22.07;20.20;97144.91;10544992;28;20040;-75
2021/04/30 12:34:53;;;;;;;3.67;2.67;;;;;;;21.29;21.15;97137.38;10573299;27;20065;-74
2021/04/30 12:40:34;;;;;;;4.10;2.97;;;;;;;21.20;21.02;97138.59;10574901;28;20051;-78
2021/04/30 12:45:56;;;;;;;7.78;3.00;;;;;;;21.24;21.35;97121.66;10557958;28;20047;-78
2021/04/30 12:51:31;;;;;;;3.95;2.72;;;;;;;21.26;21.07;97113.91;10557787;28;20402;-77
2021/04/30 12:56:52;;;;;;;3.47;2.42;;;;;;;21.40;21.32;97116.25;10573216;28;20043;-78
2021/04/30 13:02:14;;;;;;;4.50;3.20;;;;;;;21.14;21.44;97151.31;10571074;28;20048;-73
2021/04/30 13:07:36;;;;;;;5.20;3.58;;;;;;;20.99;21.67;97146.06;10570501;28;20383;-74
2021/04/30 13:13:06;;;;;;;4.40;3.08;;;;;;;21.14;21.67;97122.22;10556082;28;20048;-75
2021/04/30 13:18:39;;;;;;;4.40;2.58;;;;;;;21.02;21.64;97117.03;10584668;28;20040;-74
2021/04/30 13:24:22;;;;;;;5.20;3.30;;;;;;;21.18;21.48;97116.59;10571760;28;20043;-73
2021/04/30 13:29:50;;;;;;;;;;;;;;;21.02;22.30;97093.63;10572303;28;20089;-75
2021/04/30 13:35:11;;;;;;;5.38;3.63;;;;;;;20.82;22.12;97094.72;10570570;28;19919;-74
2021/04/30 13:40:45;;;;;;;5.45;3.60;;;;;;;20.61;22.00;97087.28;10547197;28;20069;-75
2021/04/30 13:46:18;;;;;;;3.88;2.65;;;;;;;20.57;22.15;97087.22;10569188;28;20478;-75
2021/04/30 13:51:39;;;;;;;7.72;3.63;;;;;;;20.57;22.36;97067.38;10554886;28;20489;-75
2021/04/30 13:56:59;;;;;;;5.07;3.28;;;;;;;20.42;22.53;97068.47;10554934;28;20093;-74
2021/04/30 14:02:21;;;;;;;4.78;3.33;;;;;;;20.61;22.82;97047.56;10568690;28;20047;-75
2021/04/30 14:07:43;;;;;;;3.47;2.95;;;;;;;20.64;22.30;97046.19;10568217;28;20116;-75
2021/04/30 14:13:10;;;;;;;7.47;4.20;;;;;;;20.29;22.84;97048.41;10568415;28;20050;-75
2021/04/30 14:18:30;;;;;;;7.82;3.92;;;;;;;19.89;23.28;97041.97;10554556;28;20043;-74
2021/04/30 14:23:52;;;;;;;9.75;4.15;;;;;;;19.73;23.45;97043.09;10581991;28;20558;-74
2021/04/30 14:29:12;;;;;;;6.15;3.92;;;;;;;19.64;23.82;97037.94;10567345;28;20093;-72
2021/04/30 14:34:32;;;;;;;8.00;4.13;;;;;;;19.35;24.07;97039.41;10553109;28;20048;-74
2021/04/30 14:40:12;;;;;;;6.32;4.45;;;;;;;19.23;24.93;97036.31;10558342;28;20043;-73
2021/04/30 14:45:33;;;;;;;6.72;4.38;;;;;;;19.04;24.74;97033.06;10553102;28;20046;-75
2021/04/30 14:50:54;;;;;;;5.95;4.70;;;;;;;18.73;25.13;97047.88;10566761;28;20043;-74
2021/04/30 14:56:15;;;;;;;7.80;4.50;;;;;;;18.65;25.37;97042.03;10566798;28;20047;-75
2021/04/30 15:01:38;;;;;;;5.97;4.00;;;;;;;18.62;25.25;97040.50;10553408;28;20452;-73
2021/04/30 15:06:59;;;;;;;5.13;4.15;;;;;;;18.51;26.00;97039.50;10565308;28;20055;-76
2021/04/30 15:12:21;;;;;;;6.82;4.55;;;;;;;18.44;25.94;97043.59;10566184;28;20036;-75
2021/04/30 15:17:41;;;;;;;7.57;4.03;;;;;;;18.16;25.80;97035.09;10552799;28;20051;-74
2021/04/30 15:23:02;;;;;;;4.82;3.70;;;;;;;18.17;26.00;97042.19;10552331;28;20047;-75
2021/04/30 15:28:22;;;;;;;5.07;4.20;;;;;;;17.95;26.44;97045.84;10567206;28;20089;-75
2021/04/30 15:33:45;;;;;;;6.47;3.95;;;;;;;18.04;26.58;97058.06;10574255;28;20406;-74
2021/04/30 15:39:07;;;;;;;;;;;;;;;18.19;26.55;97053.53;10575229;28;20082;-75
2021/04/30 15:44:28;;;;;;;5.90;4.03;;;;;;;18.13;26.54;97053.34;10573810;28;19919;-75
2021/04/30 15:49:49;;;;;;;5.93;4.45;;;;;;;18.34;26.30;97066.66;10574411;28;20046;-74
2021/04/30 15:55:14;;;;;;;7.20;4.15;;;;;;;18.59;26.26;97062.34;10573510;28;20043;-75
2021/04/30 16:00:36;;;;;;;6.97;4.10;;;;;;;18.80;26.11;97057.94;10560430;27;20547;-74
2021/04/30 16:05:57;;;;;;;6.70;4.93;;;;;;;18.81;25.89;97076.31;10559545;28;20089;-73
2021/04/30 16:11:18;;;;;;;6.78;4.18;;;;;;;18.62;25.80;97048.97;10475192;28;20052;-73
2021/04/30 16:16:38;;;;;;;9.10;4.63;;;;;;;18.54;26.25;97060.81;10475553;28;20051;-75
2021/04/30 16:21:59;;;;;;;5.20;4.30;;;;;;;18.43;26.09;97068.31;10461453;28;20388;-74
2021/04/30 16:27:20;;;;;;;8.35;5.30;;;;;;;18.24;26.02;97063.56;10461183;28;20467;-74
2021/04/30 16:32:40;;;;;;;6.13;4.70;;;;;;;17.93;26.23;97070.47;10475345;28;20044;-74
2021/04/30 16:38:01;;;;;;;7.53;4.43;;;;;;;17.69;26.22;97068.41;10489007;28;20052;-74
2021/04/30 16:43:21;;;;;;;5.80;4.63;;;;;;;17.47;26.37;97073.38;10474241;28;20043;-74
2021/04/30 16:49:04;;;;;;;7.63;3.88;;;;;;;17.37;26.54;97070.22;10491236;28;20036;-73
2021/04/30 16:54:29;;;;;;;8.45;5.88;;;;;;;17.28;26.57;97060.09;10489056;28;20118;-76
2021/04/30 16:59:49;;;;;;;8.73;5.32;;;;;;;17.30;26.69;97060.16;10475538;28;20052;-74
2021/04/30 17:05:10;;;;;;;8.10;4.28;;;;;;;17.30;26.47;97048.88;10474048;28;20062;-74
2021/04/30 17:10:34;;;;;;;5.53;4.45;;;;;;;17.14;26.51;97037.81;10563679;28;20056;-73
2021/04/30 17:15:54;;;;;;;8.97;4.90;;;;;;;16.85;26.58;97041.84;10571539;28;20432;-74
2021/04/30 17:21:16;;;;;;;7.28;5.20;;;;;;;16.58;27.06;97054.31;10570729;28;20047;-74
2021/04/30 17:26:37;;;;;;;7.13;4.80;;;;;;;16.36;27.51;97062.03;10570240;28;20039;-73
2021/04/30 17:31:58;;;;;;;7.50;4.70;;;;;;;16.15;28.90;97078.22;10570354;28;20046;-74
2021/04/30 17:37:18;;;;;;;7.93;5.45;;;;;;;15.92;29.30;97087.97;10569690;28;20044;-73
2021/04/30 17:42:39;;;;;;;6.38;4.72;;;;;;;15.78;29.49;97097.97;10569483;28;20043;-73
2021/04/30 17:48:03;;;;;;;5.72;4.90;;;;;;;15.63;31.34;97091.84;10555244;28;20044;-73
2021/04/30 17:53:25;;;;;;;7.63;5.25;;;;;;;15.28;30.82;97094.69;10582978;28;20055;-74
2021/04/30 17:58:46;;;;;;;8.30;5.82;;;;;;;14.99;31.82;97099.19;10569065;28;20044;-75
2021/04/30 18:04:07;;;;;;;8.77;5.13;;;;;;;14.67;33.00;97112.63;10568438;28;20039;-75
2021/04/30 18:09:27;;;;;;;6.45;5.35;;;;;;;14.39;32.77;97120.56;10554374;28;20051;-74
2021/04/30 18:14:48;;;;;;;7.15;5.75;;;;;;;14.20;34.15;97121.13;10568006;28;20406;-75
2021/04/30 18:20:10;;;;;;;8.30;5.80;;;;;;;13.91;34.92;97125.50;10568101;28;20047;-74
2021/04/30 18:25:33;;;;;;;9.52;6.68;;;;;;;13.66;37.33;97129.28;10553614;27;20097;-73
2021/04/30 18:30:53;;;;;;;11.32;7.88;;;;;;;13.32;37.46;97110.88;10567741;28;20050;-75
2021/04/30 18:36:15;;;;;;;9.98;7.85;;;;;;;13.11;39.24;97128.78;10567549;28;20040;-74
2021/04/30 18:41:36;;;;;;;10.88;8.00;;;;;;;12.82;38.51;97104.28;10553279;28;20047;-74
2021/04/30 18:46:57;;;;;;;11.10;8.15;;;;;;;12.54;40.14;97126.00;10567431;28;20040;-75
2021/04/30 18:52:17;;;;;;;8.73;7.43;;;;;;;12.37;39.70;97135.69;10566883;28;20040;-75
2021/04/30 18:57:37;;;;;;;9.32;7.25;;;;;;;12.29;40.87;97130.38;10567509;28;20043;-75
2021/04/30 19:02:58;;;;;;;11.38;7.03;;;;;;;12.40;40.28;97158.88;10566816;28;20044;-74
2021/04/30 19:08:19;;;;;;;9.02;7.47;;;;;;;12.52;40.40;97156.69;10567036;28;20060;-75
2021/04/30 19:13:40;;;;;;;9.80;7.32;;;;;;;12.54;40.47;97170.78;10566390;28;20040;-74
2021/04/30 19:19:00;;;;;;;9.70;7.25;;;;;;;12.67;40.37;97175.69;10580600;28;20581;-75
2021/04/30 19:24:21;;;;;;;8.82;7.43;;;;;;;12.71;39.95;97191.94;10552286;28;20040;-72
2021/04/30 19:29:42;;;;;;;8.40;6.85;;;;;;;12.79;40.57;97190.28;10551976;28;20043;-74
2021/04/30 19:35:03;;;;;;;8.50;7.20;;;;;;;12.83;40.58;97196.06;10538357;28;20051;-75
2021/04/30 19:40:23;;;;;;;8.23;7.03;;;;;;;12.88;40.55;97208.94;10537937;28;20051;-75
2021/04/30 19:45:44;;;;;;;10.45;7.22;;;;;;;12.84;40.77;97210.81;10566022;28;20044;-73
2021/04/30 19:51:04;;;;;;;8.82;6.68;;;;;;;12.86;40.77;97222.13;10565502;28;20043;-74
2021/04/30 19:56:26;;;;;;;10.80;7.75;;;;;;;12.77;41.11;97220.25;10565730;28;20040;-73
2021/04/30 20:01:48;;;;;;;13.25;8.18;;;;;;;12.62;42.46;97207.59;10565517;28;20040;-74
2021/04/30 20:07:08;;;;;;;9.10;8.10;;;;;;;12.43;43.00;97227.63;10565189;28;20405;-74
2021/04/30 20:12:28;;;;;;;13.77;8.15;;;;;;;12.26;43.32;97237.97;10551302;28;20440;-74
2021/04/30 20:17:52;;;;;;;12.00;9.10;;;;;;;12.23;43.14;97250.38;10571150;28;20047;-74
2021/04/30 20:23:13;;;;;;;13.37;9.73;;;;;;;12.14;44.68;97248.50;10573128;28;20487;-77
2021/04/30 20:28:34;;;;;;;11.07;8.90;;;;;;;11.98;44.95;97250.44;10550321;28;20367;-76
2021/04/30 20:33:54;;;;;;;13.10;10.60;;;;;;;11.73;47.72;97267.94;10550527;28;20043;-76
2021/04/30 20:39:16;;;;;;;12.40;11.05;;;;;;;11.51;49.77;97275.81;10569678;28;20054;-74
2021/04/30 20:44:36;;;;;;;12.50;11.20;;;;;;;11.52;48.05;97266.09;10558507;28;20465;-75
2021/04/30 20:49:57;;;;;;;14.50;12.40;;;;;;;11.53;48.38;97273.13;10557828;28;20437;-74
2021/04/30 20:55:17;;;;;;;14.65;12.45;;;;;;;11.46;48.66;97274.84;10557638;28;20047;-74
2021/04/30 21:00:38;;;;;;;15.57;12.88;;;;;;;11.47;50.67;97273.50;10571580;28;20089;-75
2021/04/30 21:05:58;;;;;;;15.02;13.15;;;;;;;11.43;50.12;97286.53;10557136;28;20607;-74
2021/04/30 21:11:37;;;;;;;15.52;12.57;;;;;;;11.45;50.02;97283.84;10542844;28;20040;-75
2021/04/30 21:17:05;;;;;;;15.98;12.77;;;;;;;11.46;51.10;97274.13;10561963;28;20493;-76
2021/04/30 21:22:29;;;;;;;15.90;12.43;;;;;;;11.38;51.91;97279.25;10543589;28;20039;-76
2021/04/30 21:27:49;;;;;;;14.65;13.07;;;;;;;11.38;51.75;97276.44;10542882;28;20050;-75
2021/04/30 21:33:12;;;;;;;16.45;13.07;;;;;;;11.34;53.22;97282.53;10556147;28;20117;-74
2021/04/30 21:38:32;;;;;;;15.95;12.98;;;;;;;11.35;51.98;97286.78;10542613;28;20044;-74
2021/04/30 21:43:53;;;;;;;15.50;12.95;;;;;;;11.31;52.63;97269.09;10541614;28;20043;-75
2021/04/30 21:49:13;;;;;;;15.48;13.32;;;;;;;11.09;53.31;97277.63;10554966;28;20046;-74
2021/04/30 21:54:34;;;;;;;19.40;13.93;;;;;;;11.04;53.38;97278.72;10555111;28;20051;-75
2021/04/30 21:59:55;;;;;;;17.63;14.23;;;;;;;11.00;53.32;97289.69;10568895;28;20051;-75
2021/04/30 22:05:15;;;;;;;17.60;14.93;;;;;;;11.07;54.36;97301.91;10568703;28;20402;-75
2021/04/30 22:10:35;;;;;;;15.68;13.45;;;;;;;11.06;54.53;97303.97;10554150;28;20055;-74
2021/04/30 22:15:56;;;;;;;15.88;13.07;;;;;;;10.96;53.86;97305.44;10568158;28;20043;-74
2021/04/30 22:21:17;;;;;;;17.17;12.57;;;;;;;10.94;54.33;97308.13;10540262;28;20039;-76
2021/04/30 22:26:38;;;;;;;14.00;12.02;;;;;;;10.83;54.40;97315.19;10553681;28;20533;-75
2021/04/30 22:31:59;;;;;;;12.32;10.70;;;;;;;10.75;54.91;97332.19;10553746;28;20047;-73
2021/04/30 22:37:19;;;;;;;13.48;11.65;;;;;;;10.77;55.12;97334.34;10552996;28;20050;-75
2021/04/30 22:42:40;;;;;;;13.75;12.13;;;;;;;10.75;55.10;97334.97;10525437;28;20486;-74
2021/04/30 22:48:00;;;;;;;17.23;13.63;;;;;;;10.75;55.72;97345.41;10567106;28;20043;-75
2021/04/30 22:53:21;;;;;;;15.57;12.18;;;;;;;10.54;56.98;97335.81;10552915;28;20046;-73
2021/04/30 22:58:42;;;;;;;13.43;11.07;;;;;;;10.38;56.35;97357.13;10567263;28;20040;-75
2021/04/30 23:04:02;;;;;;;12.50;10.70;;;;;;;10.31;56.62;97321.81;10538630;28;20044;-74
2021/04/30 23:09:23;;;;;;;15.07;11.18;;;;;;;10.25;57.90;97310.28;10539071;28;20059;-74
2021/04/30 23:14:48;;;;;;;17.30;12.98;;;;;;;10.19;57.80;97293.16;10553721;28;20102;-76
2021/04/30 23:20:09;;;;;;;15.13;12.32;;;;;;;10.06;58.25;97311.19;10566659;28;20048;-74
2021/04/30 23:25:31;;;;;;;14.43;12.38;;;;;;;10.01;58.50;97326.94;10552779;28;20394;-74
2021/04/30 23:30:51;;;;;;;17.33;13.82;;;;;;;10.06;59.02;97347.44;10538204;28;20047;-75
2021/04/30 23:36:12;;;;;;;15.88;13.65;;;;;;;10.07;59.50;97337.03;10538155;28;20032;-74
2021/04/30 23:41:33;;;;;;;16.40;12.90;;;;;;;10.09;59.69;97321.13;10537827;28;20055;-74
2021/04/30 23:46:54;;;;;;;13.25;11.85;;;;;;;10.08;60.10;97316.16;10580394;28;20039;-74
2021/04/30 23:52:15;;;;;;;15.98;12.88;;;;;;;9.93;61.22;97306.16;10557684;28;20054;-74
2021/04/30 23:57:36;;;;;;;14.38;12.55;;;;;;;9.91;61.11;97334.66;10574133;28;20405;-75
